createdAt,value
2022-11-26T00:04:46.109Z,4.60
2022-11-26T00:09:51.362Z,4.22
2022-11-26T00:14:54.374Z,3.67
2022-11-26T00:19:56.855Z,3.70
2022-11-26T00:24:59.438Z,4.30
2022-11-26T00:30:01.688Z,3.50
2022-11-26T00:35:04.204Z,3.80
2022-11-26T00:40:07.220Z,5.57
2022-11-26T00:45:36.452Z,3.58
2022-11-26T00:50:42.932Z,3.92
2022-11-26T00:55:48.260Z,3.90
2022-11-26T01:00:51.406Z,4.40
2022-11-26T01:05:57.653Z,4.88
2022-11-26T01:11:01.422Z,4.70
2022-11-26T01:16:16.657Z,5.63
2022-11-26T01:21:19.916Z,5.45
2022-11-26T01:26:25.067Z,5.72
2022-11-26T01:31:29.263Z,5.93
2022-11-26T01:36:34.469Z,5.72
2022-11-26T01:41:55.285Z,5.53
2022-11-26T01:46:59.172Z,6.07
2022-11-26T01:52:19.379Z,5.97
2022-11-26T01:57:25.873Z,5.40
2022-11-26T02:02:30.360Z,5.97
2022-11-26T02:07:32.951Z,5.45
2022-11-26T02:12:35.305Z,6.57
2022-11-26T02:17:43.277Z,10.20
2022-11-26T02:22:59.017Z,7.40
2022-11-26T02:28:27.291Z,10.23
2022-11-26T02:33:40.791Z,9.57
2022-11-26T02:38:43.357Z,10.57
2022-11-26T02:43:46.571Z,9.10
2022-11-26T02:48:52.577Z,9.73
2022-11-26T02:53:56.111Z,6.70
2022-11-26T02:58:59.881Z,7.32
2022-11-26T03:04:09.069Z,7.28
2022-11-26T03:09:11.372Z,7.32
2022-11-26T03:14:13.751Z,7.40
2022-11-26T03:19:15.979Z,6.93
2022-11-26T03:24:18.318Z,6.88
2022-11-26T03:29:20.714Z,6.65
2022-11-26T03:34:22.994Z,8.73
2022-11-26T03:39:25.423Z,7.28
2022-11-26T03:44:27.647Z,6.75
2022-11-26T03:49:30.103Z,5.55
2022-11-26T03:54:32.388Z,6.15
2022-11-26T03:59:34.668Z,5.78
2022-11-26T04:04:37.489Z,4.15
2022-11-26T04:09:40.146Z,5.45
2022-11-26T04:14:42.421Z,5.22
2022-11-26T04:19:44.643Z,4.50
2022-11-26T04:24:46.845Z,4.55
2022-11-26T04:29:49.051Z,5.13
2022-11-26T04:34:51.362Z,5.32
2022-11-26T04:39:53.579Z,5.32
2022-11-26T04:44:55.899Z,7.15
2022-11-26T04:49:58.134Z,5.90
2022-11-26T04:55:00.301Z,5.82
2022-11-26T05:00:02.673Z,8.63
2022-11-26T05:05:05.241Z,7.03
2022-11-26T05:10:09.356Z,6.15
2022-11-26T05:15:12.169Z,6.57
2022-11-26T05:20:15.488Z,6.40
2022-11-26T05:25:18.050Z,6.90
2022-11-26T05:30:20.670Z,6.20
2022-11-26T05:35:23.318Z,7.00
2022-11-26T05:40:25.712Z,7.00
2022-11-26T05:45:28.078Z,7.88
2022-11-26T05:50:30.441Z,10.27
2022-11-26T05:55:33.001Z,9.43
2022-11-26T06:00:35.253Z,9.27
2022-11-26T06:05:37.594Z,11.63
2022-11-26T06:10:42.892Z,10.63
2022-11-26T06:15:45.173Z,15.93
2022-11-26T06:20:47.387Z,11.65
2022-11-26T06:25:49.621Z,11.30
2022-11-26T06:30:52.001Z,9.52
2022-11-26T06:35:58.550Z,9.18
2022-11-26T06:41:06.515Z,9.68
2022-11-26T06:46:10.666Z,10.23
2022-11-26T06:51:15.920Z,8.23
2022-11-26T06:56:19.332Z,10.10
2022-11-26T07:01:24.713Z,9.57
2022-11-26T07:06:29.928Z,11.52
2022-11-26T07:11:32.714Z,11.48
2022-11-26T07:16:35.762Z,11.52
2022-11-26T07:21:38.517Z,10.77
2022-11-26T07:26:40.957Z,10.65
2022-11-26T07:31:43.367Z,9.63
2022-11-26T07:36:45.686Z,10.95
2022-11-26T07:41:47.911Z,9.90
2022-11-26T07:46:50.344Z,11.43
2022-11-26T07:51:52.576Z,12.02
2022-11-26T07:56:54.912Z,9.25
2022-11-26T08:01:57.632Z,5.68
2022-11-26T08:07:00.081Z,4.25
2022-11-26T08:12:02.496Z,3.60
2022-11-26T08:17:04.779Z,3.30
2022-11-26T08:22:07.156Z,3.00
2022-11-26T08:27:09.499Z,3.30
2022-11-26T08:32:11.728Z,4.07
2022-11-26T08:37:14.098Z,3.85
2022-11-26T08:42:16.449Z,4.15
2022-11-26T08:47:18.736Z,4.13
2022-11-26T08:52:21.012Z,4.60
2022-11-26T08:57:23.207Z,3.92
2022-11-26T09:02:25.360Z,3.80
2022-11-26T09:07:28.672Z,4.43
2022-11-26T09:12:30.867Z,4.60
2022-11-26T09:17:32.992Z,4.35
2022-11-26T09:22:35.887Z,4.72
2022-11-26T09:27:38.116Z,5.38
2022-11-26T09:32:40.328Z,4.55
2022-11-26T09:37:46.051Z,4.07
2022-11-26T09:43:06.083Z,3.50
2022-11-26T09:48:15.403Z,4.10
2022-11-26T09:53:25.840Z,2.87
2022-11-26T09:58:45.661Z,2.78
2022-11-26T10:03:48.372Z,2.60
2022-11-26T10:14:40.770Z,3.47
2022-11-26T10:20:09.709Z,2.70
2022-11-26T10:25:25.192Z,2.20
2022-11-26T10:30:30.602Z,2.15
2022-11-26T10:35:33.642Z,2.00
2022-11-26T10:40:36.185Z,2.13
2022-11-26T10:45:40.023Z,2.78
2022-11-26T10:50:48.067Z,4.57
2022-11-26T10:55:52.543Z,3.20
2022-11-26T11:00:59.947Z,2.63
2022-11-26T11:06:22.360Z,2.22
2022-11-26T11:11:30.690Z,2.15
2022-11-26T11:16:41.279Z,2.20
2022-11-26T11:21:48.161Z,2.70
2022-11-26T11:26:55.771Z,2.88
2022-11-26T11:31:58.155Z,4.35
2022-11-26T11:37:05.368Z,3.45
2022-11-26T11:42:22.540Z,2.05
2022-11-26T11:47:38.874Z,3.47
2022-11-26T11:53:15.988Z,2.35
2022-11-26T11:58:47.267Z,1.95
2022-11-26T12:04:05.084Z,2.00
2022-11-26T12:09:41.373Z,2.80
2022-11-26T12:14:48.747Z,2.55
2022-11-26T12:19:50.804Z,2.00
2022-11-26T12:25:30.115Z,2.05
2022-11-26T12:30:52.005Z,2.13
2022-11-26T12:36:00.719Z,2.50
2022-11-26T12:41:08.159Z,3.55
2022-11-26T12:46:20.473Z,2.70
2022-11-26T12:51:37.742Z,2.63
2022-11-26T12:56:50.981Z,5.25
2022-11-26T13:01:53.295Z,4.05
2022-11-26T13:07:04.267Z,2.13
2022-11-26T13:12:15.338Z,2.22
2022-11-26T13:17:21.812Z,2.22
2022-11-26T13:22:41.619Z,3.08
2022-11-26T13:27:49.871Z,2.67
2022-11-26T13:33:13.520Z,5.25
2022-11-26T13:38:23.866Z,2.50
2022-11-26T13:43:26.038Z,2.50
2022-11-26T13:48:44.918Z,2.90
2022-11-26T13:54:10.278Z,2.05
2022-11-26T13:59:25.377Z,2.47
2022-11-26T14:04:30.360Z,2.60
2022-11-26T14:09:50.528Z,2.42
2022-11-26T14:14:53.146Z,2.72
2022-11-26T14:19:59.032Z,2.47
2022-11-26T14:25:09.628Z,3.63
2022-11-26T14:30:23.312Z,3.67
2022-11-26T14:35:33.924Z,2.70
2022-11-26T14:40:38.897Z,2.70
2022-11-26T14:45:43.257Z,3.10
2022-11-26T14:50:45.737Z,2.83
2022-11-26T14:55:49.496Z,3.35
2022-11-26T15:01:29.861Z,5.97
2022-11-26T15:06:38.630Z,6.95
2022-11-26T15:11:50.793Z,6.77
2022-11-26T15:17:00.939Z,7.18
2022-11-26T15:22:28.720Z,7.85
2022-11-26T15:27:41.892Z,9.75
2022-11-26T15:32:44.397Z,10.10
2022-11-26T15:37:46.625Z,9.02
2022-11-26T15:42:51.468Z,9.57
2022-11-26T15:47:55.356Z,10.13
2022-11-26T15:53:01.943Z,10.55
2022-11-26T15:58:09.291Z,9.13
2022-11-26T16:03:36.202Z,10.02
2022-11-26T16:08:39.818Z,12.43
2022-11-26T16:13:42.079Z,11.02
2022-11-26T16:18:49.052Z,10.65
2022-11-26T16:24:18.277Z,11.50
2022-11-26T16:29:20.427Z,21.17
2022-11-26T16:34:23.352Z,22.25
2022-11-26T16:39:30.059Z,22.30
2022-11-26T16:44:32.842Z,22.23
2022-11-26T16:49:35.217Z,19.27
2022-11-26T16:54:37.862Z,18.45
2022-11-26T16:59:41.094Z,15.07
2022-11-26T17:04:44.089Z,14.23
2022-11-26T17:09:46.515Z,11.90
2022-11-26T17:14:49.550Z,10.65
2022-11-26T17:19:51.973Z,13.90
2022-11-26T17:24:54.236Z,17.25
2022-11-26T17:29:56.703Z,16.23
2022-11-26T17:34:59.060Z,20.00
2022-11-26T17:40:01.319Z,18.67
2022-11-26T17:45:03.971Z,15.98
2022-11-26T17:50:08.396Z,15.68
2022-11-26T17:55:12.038Z,17.42
2022-11-26T18:00:21.027Z,21.90
2022-11-26T18:05:23.932Z,19.70
2022-11-26T18:10:26.268Z,15.40
2022-11-26T18:15:28.612Z,19.23
2022-11-26T18:20:31.513Z,17.35
2022-11-26T18:25:35.234Z,20.58
2022-11-26T18:30:38.067Z,25.48
2022-11-26T18:35:42.507Z,22.65
2022-11-26T18:40:44.905Z,22.67
2022-11-26T18:45:47.786Z,20.17
2022-11-26T18:50:57.704Z,21.30
2022-11-26T18:56:00.058Z,20.95
2022-11-26T19:01:02.853Z,21.80
2022-11-26T19:06:06.232Z,24.48
2022-11-26T19:11:14.034Z,25.55
2022-11-26T19:16:18.936Z,28.02
2022-11-26T19:21:29.642Z,29.10
2022-11-26T19:26:32.230Z,22.30
2022-11-26T19:31:36.449Z,23.33
2022-11-26T19:36:38.943Z,27.10
2022-11-26T19:41:41.226Z,24.92
2022-11-26T19:46:43.424Z,24.58
2022-11-26T19:51:45.785Z,35.17
2022-11-26T19:56:48.792Z,31.33
2022-11-26T20:01:51.240Z,48.42
2022-11-26T20:06:54.202Z,30.50
2022-11-26T20:11:56.389Z,33.97
2022-11-26T20:17:01.179Z,32.97
2022-11-26T20:22:04.192Z,37.20
2022-11-26T20:27:06.524Z,33.42
2022-11-26T20:32:09.005Z,41.35
2022-11-26T20:37:11.377Z,43.08
2022-11-26T20:42:15.834Z,40.92
2022-11-26T20:47:18.102Z,38.13
2022-11-26T20:52:22.106Z,30.42
2022-11-26T20:57:24.302Z,27.40
2022-11-26T21:02:28.199Z,28.27
2022-11-26T21:07:30.533Z,32.63
2022-11-26T21:12:32.965Z,30.45
2022-11-26T21:17:35.453Z,22.40
2022-11-26T21:22:38.609Z,18.73
2022-11-26T21:27:40.828Z,18.50
2022-11-26T21:32:43.218Z,18.85
2022-11-26T21:37:46.065Z,26.27
2022-11-26T21:42:48.286Z,34.65
2022-11-26T21:47:53.049Z,45.20
2022-11-26T21:52:55.268Z,19.35
2022-11-26T21:57:57.453Z,16.85
2022-11-26T22:02:59.855Z,17.58
2022-11-26T22:08:02.180Z,16.05
2022-11-26T22:13:04.411Z,20.42
2022-11-26T22:18:06.673Z,20.27
2022-11-26T22:23:08.888Z,19.00
2022-11-26T22:28:11.368Z,18.50
2022-11-26T22:33:13.603Z,18.67
2022-11-26T22:38:15.887Z,15.50
2022-11-26T22:43:18.183Z,15.00
2022-11-26T22:48:20.591Z,22.08
2022-11-26T22:53:23.636Z,14.98
2022-11-26T22:58:27.371Z,16.77
2022-11-26T23:03:32.243Z,11.35
2022-11-26T23:08:35.737Z,12.80
2022-11-26T23:13:40.003Z,11.40
2022-11-26T23:18:42.753Z,11.90
2022-11-26T23:23:46.135Z,15.43
2022-11-26T23:28:48.527Z,14.70
2022-11-26T23:33:52.345Z,13.45
2022-11-26T23:38:55.268Z,13.13
2022-11-26T23:43:57.851Z,13.13
2022-11-26T23:49:00.144Z,12.45
2022-11-26T23:54:02.469Z,11.43
2022-11-26T23:59:05.437Z,10.77
